Latest Weather Observations for Beerburrum

IDQ60901

Issued at 8:05 pm EST Saturday 30 August 2014 (issued every 10 minutes, with the page automatically refreshed every 10 minutes)

About weather observations | Map of Brisbane area stations | Latest observations for Brisbane area | Other Formats
Station Details ID: 040284 Name: BEERBURRUM FOREST STATION Lat: -26.96 Lon: 152.96 Height: 48.0 m
Data from the previous 72 hours. | See also: Recent months at Beerburrum
Date/Time
EST
Tmp

°C
App
Tmp
°C
Dew
Point
°C
Rel
Hum
%
Delta-T

°C
Wind Press
QNH
hPa
Press
MSL
hPa
Rain
since
9 am
mm
Dir
 
Spd
km/h
Gust
km/h
Spd
kts
Gust
kts
30/08:00pm 13.1 13.2 10.1 82 1.6 CALM 0 0 0 0 - - 0.0
30/07:30pm 14.3 14.6 10.9 80 1.8 CALM 0 0 0 0 - - 0.0
30/07:00pm 14.5 14.7 10.7 78 2.0 CALM 0 0 0 0 - - 0.0
30/06:30pm 15.3 15.5 10.7 74 2.4 CALM 0 0 0 0 - - 0.0
30/06:00pm 16.1 16.3 10.4 69 3.0 CALM 0 0 0 0 - - 0.0
30/05:30pm 17.4 17.2 10.3 63 3.8 E 2 9 1 5 - - 0.0
30/05:00pm 18.8 18.0 9.6 55 4.9 NE 4 7 2 4 - - 0.0
30/04:30pm 21.2 19.8 8.8 45 6.6 ENE 6 48 3 26 - - 0.0
30/04:00pm 22.0 20.2 7.8 40 7.4 E 7 13 4 7 - - 0.0
30/03:30pm 22.7 21.0 8.4 40 7.6 ENE 7 13 4 7 - - 0.0
30/03:00pm 23.0 21.5 9.0 41 7.5 E 7 15 4 8 - - 0.0
30/02:30pm 22.6 20.3 7.6 38 7.8 E 9 15 5 8 - - 0.0
30/02:00pm 22.6 20.5 6.8 36 8.1 ESE 7 13 4 7 - - 0.0
30/01:30pm 23.2 21.1 6.5 34 8.6 SSW 7 9 4 5 - - 0.0
30/01:00pm 22.6 20.4 6.4 35 8.3 S 7 13 4 7 - - 0.0
30/12:30pm 22.2 19.3 4.7 32 8.6 SSE 9 13 5 7 - - 0.0
30/12:00pm 21.8 19.6 8.0 41 7.2 SSE 9 15 5 8 - - 0.0
30/11:30am 21.8 19.8 6.9 38 7.6 SW 7 15 4 8 - - 0.0
30/11:00am 21.4 19.5 6.5 38 7.6 SW 6 9 3 5 - - 0.0
30/10:30am 20.7 18.7 7.3 42 6.9 WNW 7 13 4 7 - - 0.0
30/10:00am 19.1 16.8 5.6 41 6.6 W 7 11 4 6 - - 0.0
30/09:30am 18.3 16.3 7.1 48 5.6 W 7 11 4 6 - - 0.0
30/09:00am 17.5 15.7 8.1 54 4.8 NE 7 9 4 5 - - 0.2
30/08:30am 15.8 14.3 8.3 61 3.8 SSW 6 9 3 5 - - 0.2
30/08:00am 15.0 14.5 9.4 69 2.9 SSW 2 6 1 3 - - 0.2
30/07:30am 12.7 11.8 9.3 80 1.7 SW 4 7 2 4 - - 0.2
30/07:00am 11.1 9.6 9.2 88 1.0 SSE 7 11 4 6 - - 0.2
30/06:30am 9.8 9.0 8.2 90 0.8 E 2 6 1 3 - - 0.2
30/06:00am 9.6 9.3 8.5 93 0.5 CALM 0 6 0 3 - - 0.2
30/05:30am 8.9 8.4 8.0 94 0.4 CALM 0 0 0 0 - - 0.2
30/05:00am 8.3 7.7 7.2 93 0.5 CALM 0 0 0 0 - - 0.2
30/04:30am 8.2 7.5 7.1 93 0.5 CALM 0 0 0 0 - - 0.0
30/04:00am 8.2 7.5 7.0 92 0.6 CALM 0 0 0 0 - - 0.0
30/03:30am 8.5 7.9 7.3 92 0.6 CALM 0 0 0 0 - - 0.0
30/03:00am 8.8 8.2 7.6 92 0.6 CALM 0 0 0 0 - - 0.0
30/02:30am 9.1 8.6 7.9 92 0.6 CALM 0 0 0 0 - - 0.0
30/02:00am 9.3 8.9 8.2 93 0.5 CALM 0 0 0 0 - - 0.0
30/01:30am 9.5 9.1 8.4 93 0.5 CALM 0 0 0 0 - - 0.0
30/01:00am 8.8 8.3 7.7 93 0.5 CALM 0 0 0 0 - - 0.0
30/12:30am 8.3 7.6 7.1 92 0.6 CALM 0 0 0 0 - - 0.0
30/12:00am 8.7 8.1 7.5 92 0.6 CALM 0 0 0 0 - - 0.0
 
Date/Time
EST
Tmp

°C
App
Tmp
°C
Dew
Point
°C
Rel
Hum
%
Delta-T

°C
Wind Press
QNH
hPa
Press
MSL
hPa
Rain
since
9 am
mm
Dir
 
Spd
km/h
Gust
km/h
Spd
kts
Gust
kts
29/11:30pm 8.8 8.2 7.6 92 0.6 CALM 0 0 0 0 - - 0.0
29/11:00pm 8.8 8.2 7.6 92 0.6 CALM 0 0 0 0 - - 0.0
29/10:30pm 9.1 8.6 7.7 91 0.7 CALM 0 0 0 0 - - 0.0
29/10:00pm 9.5 9.1 8.1 91 0.7 CALM 0 0 0 0 - - 0.0
29/09:30pm 9.7 9.3 8.1 90 0.8 CALM 0 0 0 0 - - 0.0
29/09:00pm 10.0 9.6 8.4 90 0.8 CALM 0 0 0 0 - - 0.0
29/08:30pm 10.7 10.5 9.0 89 0.8 CALM 0 0 0 0 - - 0.0
29/08:00pm 11.3 11.2 9.4 88 1.0 CALM 0 0 0 0 - - 0.0
29/07:30pm 11.9 11.8 9.6 86 1.2 CALM 0 0 0 0 - - 0.0
29/07:00pm 12.7 12.6 9.5 81 1.6 CALM 0 0 0 0 - - 0.0
29/06:30pm 14.1 14.1 9.9 76 2.2 CALM 0 0 0 0 - - 0.0
29/06:00pm 15.1 15.1 9.7 70 2.8 CALM 0 0 0 0 - - 0.0
29/05:30pm 16.6 16.3 10.0 65 3.5 E 2 6 1 3 - - 0.0
29/05:00pm 18.1 17.1 8.7 54 4.9 E 4 7 2 4 - - 0.0
29/04:30pm 19.8 18.2 8.2 47 6.0 E 6 9 3 5 - - 0.0
29/04:00pm 20.4 19.0 8.7 47 6.2 ENE 6 9 3 5 - - 0.0
29/03:30pm 20.5 18.8 8.5 46 6.3 ENE 7 13 4 7 - - 0.0
29/03:00pm 21.1 19.7 8.7 45 6.5 E 6 11 3 6 - - 0.0
29/02:30pm 21.1 19.0 5.9 37 7.6 NE 6 7 3 4 - - 0.0
29/02:00pm 21.5 20.0 6.6 38 7.6 NNW 4 9 2 5 - - 0.0
29/01:30pm 21.3 19.0 5.6 36 7.8 S 7 11 4 6 - - 0.0
29/01:00pm 21.9 20.1 8.1 41 7.2 ENE 7 13 4 7 - - 0.0
29/12:30pm 20.5 18.3 6.4 40 7.1 S 7 13 4 7 - - 0.0
29/12:00pm 19.6 17.7 6.7 43 6.5 S 6 11 3 6 - - 0.0
29/11:30am 19.6 17.6 7.0 44 6.4 SW 7 13 4 7 - - 0.0
29/11:00am 20.0 17.8 7.7 45 6.3 S 9 17 5 9 - - 0.0
29/10:30am 19.8 17.8 8.5 48 5.9 SE 9 15 5 8 - - 0.0
29/10:00am 19.1 17.0 8.1 49 5.7 S 9 17 5 9 - - 0.0
29/09:30am 18.9 17.6 9.1 53 5.1 SW 6 11 3 6 - - 0.0
29/09:00am 17.6 15.8 7.9 53 4.9 SSW 7 13 4 7 - - 0.0
29/08:30am 16.5 14.8 8.2 58 4.2 SW 7 20 4 11 - - 0.0
29/08:00am 15.1 13.9 9.7 70 2.8 SW 6 7 3 4 - - 0.0
29/07:30am 12.4 11.4 10.3 87 1.1 SW 6 7 3 4 - - 0.0
29/07:00am 9.4 7.8 8.2 92 0.6 SW 6 9 3 5 - - 0.0
29/06:30am 8.4 6.9 7.0 91 0.7 SW 4 7 2 4 - - 0.0
29/06:00am 8.5 6.5 7.1 91 0.7 SW 7 7 4 4 - - 0.0
29/05:30am 8.4 6.5 6.9 90 0.7 SW 6 7 3 4 - - 0.0
29/05:00am 8.9 7.1 7.2 89 0.8 SW 6 7 3 4 - - 0.0
29/04:30am 9.7 8.1 8.0 89 0.8 SW 6 7 3 4 - - 0.0
29/04:00am 9.7 7.9 7.8 88 0.9 SW 7 7 4 4 - - 0.0
29/03:30am 9.4 7.5 7.7 89 0.8 SW 7 9 4 5 - - 0.0
29/03:00am 9.8 8.2 8.2 90 0.8 SW 6 7 3 4 - - 0.0
29/02:30am 9.5 7.7 7.9 90 0.8 SW 7 9 4 5 - - 0.0
29/02:00am 9.4 7.6 7.8 90 0.8 SW 7 9 4 5 - - 0.0
29/01:30am 9.9 8.3 8.0 88 0.9 SSW 6 7 3 4 - - 0.0
29/01:00am 10.4 8.9 8.5 88 0.9 SW 6 7 3 4 - - 0.0
29/12:30am 10.4 8.7 8.3 87 1.0 SW 7 9 4 5 - - 0.0
29/12:00am 11.0 9.6 8.9 87 1.0 SW 6 7 3 4 - - 0.0
 
Date/Time
EST
Tmp

°C
App
Tmp
°C
Dew
Point
°C
Rel
Hum
%
Delta-T

°C
Wind Press
QNH
hPa
Press
MSL
hPa
Rain
since
9 am
mm
Dir
 
Spd
km/h
Gust
km/h
Spd
kts
Gust
kts
28/11:30pm 11.0 9.3 8.4 84 1.3 SW 7 7 4 4 - - 0.0
28/11:00pm 11.7 10.6 8.6 81 1.5 WSW 4 7 2 4 - - 0.0
28/10:30pm 12.6 12.3 8.7 77 2.0 CALM 0 0 0 0 - - 0.0
28/10:00pm 13.0 12.0 8.7 75 2.2 WSW 4 7 2 4 - - 0.0
28/09:30pm 14.1 13.9 8.9 71 2.6 CALM 0 0 0 0 - - 0.0
28/09:00pm 14.5 13.1 8.9 69 2.8 SSW 6 9 3 5 - - 0.0
28/08:30pm 14.2 12.8 8.8 70 2.7 SSW 6 11 3 6 - - 0.0
28/08:00pm 15.1 13.6 8.6 65 3.3 SSW 6 11 3 6 - - 0.0
28/07:30pm 15.3 13.9 9.0 66 3.2 SSW 6 11 3 6 - - 0.0
28/07:00pm 14.9 13.5 9.5 70 2.8 SW 7 13 4 7 - - 0.0
28/06:30pm 14.8 14.3 9.4 70 2.8 SSE 2 7 1 4 - - 0.0
28/06:00pm 16.7 16.4 8.7 59 4.1 CALM 0 0 0 0 - - 0.0
28/05:30pm 17.9 16.5 8.7 55 4.8 SSW 6 9 3 5 - - 0.0
28/05:00pm 19.0 18.1 9.2 53 5.2 SSW 4 9 2 5 - - 0.0
28/04:30pm 20.0 18.5 9.0 49 5.8 SW 7 15 4 8 - - 0.0
28/04:00pm 19.6 18.0 8.9 50 5.6 S 7 13 4 7 - - 0.0
28/03:30pm 21.2 19.5 9.8 48 6.1 S 9 19 5 10 - - 0.0
28/03:00pm 22.3 19.7 7.7 39 7.6 S 11 20 6 11 - - 0.0
28/02:30pm 22.0 19.8 9.2 44 6.9 SSW 11 24 6 13 - - 0.0
28/02:00pm 20.1 17.9 9.4 50 5.7 SSW 11 28 6 15 - - 0.0
28/01:30pm 20.1 19.0 10.5 54 5.2 SSW 7 17 4 9 - - 0.0
28/01:00pm 20.0 18.1 10.4 54 5.2 S 11 20 6 11 - - 0.0
28/12:30pm 20.3 17.1 10.1 52 5.5 S 17 26 9 14 - - 0.0
28/12:00pm 20.5 18.3 10.9 54 5.3 S 13 28 7 15 - - 0.0
28/11:30am 20.5 18.2 10.6 53 5.4 SSW 13 26 7 14 - - 0.0
28/11:00am 19.6 16.9 10.3 55 5.0 S 15 30 8 16 - - 0.0
28/10:30am 20.3 18.1 12.0 59 4.6 SSW 15 30 8 16 - - 0.0
28/10:00am 20.1 18.0 11.3 57 4.8 SSW 13 28 7 15 - - 0.0
28/09:30am 19.4 17.6 10.7 57 4.7 SSW 11 26 6 14 - - 0.0
28/09:00am 18.2 16.4 11.0 63 3.9 SW 11 22 6 12 - - 2.6
28/08:30am 17.8 17.4 12.5 71 2.9 SW 6 15 3 8 - - 2.6
28/08:00am 15.2 14.6 12.3 83 1.6 WSW 7 9 4 5 - - 2.6
28/07:30am 14.0 13.2 11.7 86 1.2 WSW 7 9 4 5 - - 2.6
28/07:00am 13.8 12.7 10.8 82 1.6 WSW 7 13 4 7 - - 2.6
28/06:30am 13.7 12.4 9.9 78 2.0 SW 7 11 4 6 - - 2.6
28/06:00am 13.4 12.1 10.0 80 1.8 WSW 7 11 4 6 - - 2.6
28/05:30am 12.2 10.7 9.2 82 1.5 WSW 7 9 4 5 - - 2.6
28/05:00am 12.5 11.2 9.9 84 1.3 WSW 7 9 4 5 - - 2.6
28/04:30am 11.7 10.3 9.4 86 1.2 WSW 7 11 4 6 - - 2.6
28/04:00am 11.3 9.9 8.9 85 1.2 WSW 6 9 3 5 - - 2.6
28/03:30am 11.1 9.5 8.8 86 1.1 WSW 7 9 4 5 - - 2.6
28/03:00am 11.0 9.9 8.4 84 1.3 WSW 4 9 2 5 - - 2.6
28/02:30am 11.6 10.1 8.5 81 1.5 WSW 6 7 3 4 - - 2.6
28/02:00am 12.5 10.9 8.6 77 1.9 WSW 7 11 4 6 - - 2.6
28/01:30am 12.3 10.7 8.6 78 1.8 WSW 7 9 4 5 - - 2.6
28/01:00am 11.6 9.9 7.7 77 1.9 WSW 6 11 3 6 - - 2.6
28/12:30am 11.6 9.9 7.5 76 2.0 WSW 6 9 3 5 - - 2.6
28/12:00am 12.4 10.8 7.9 74 2.2 W 6 11 3 6 - - 2.6
 
Date/Time
EST
Tmp

°C
App
Tmp
°C
Dew
Point
°C
Rel
Hum
%
Delta-T

°C
Wind Press
QNH
hPa
Press
MSL
hPa
Rain
since
9 am
mm
Dir
 
Spd
km/h
Gust
km/h
Spd
kts
Gust
kts
27/11:30pm 12.2 10.5 7.7 74 2.2 WSW 6 9 3 5 - - 2.6
27/11:00pm 12.7 11.1 8.0 73 2.3 W 6 13 3 7 - - 2.6
27/10:30pm 13.0 11.6 8.7 75 2.2 WSW 6 9 3 5 - - 2.6
27/10:00pm 13.3 11.7 8.6 73 2.4 W 7 13 4 7 - - 2.6
27/09:30pm 12.8 11.4 8.7 76 2.1 WSW 6 9 3 5 - - 2.6
27/09:00pm 12.9 11.5 9.0 77 2.0 WSW 6 9 3 5 - - 2.6
27/08:30pm 13.4 11.7 8.3 71 2.5 W 7 15 4 8 - - 2.6

Latest Capital City Observations: Canberra | Sydney | Melbourne | Brisbane | Adelaide | Perth | Hobart | Darwin

Other Formats:

Comma delimited format used in spreadsheet applications
http://www.bom.gov.au/fwo/IDQ60901/IDQ60901.95566.axf

JavaScript Object Notation format (JSON) in row-major order
http://www.bom.gov.au/fwo/IDQ60901/IDQ60901.95566.json